Terminal Aerodrome Forecast
Issued by NWS

Home | Current Version | Previous Version | Text Only | Print | Product List | Glossary On
Versions: 1 2 3 4 5 6 7 8 9 10 11 12 13
148
FTUS45 KABQ 291740
TAFAEG
TAF
KAEG 291740Z 2918/3018 16010KT P6SM FEW150
     FM292300 29013KT P6SM VCTS SCT090CB BKN140
      TEMPO 2923/3001 VRB20G30KT -SHRA BKN090
     FM300100 27010KT P6SM VCSH BKN090
     FM300400 14007KT P6SM SCT150=

USA.gov is the U.S. government's official web portal to all federal, state and local government web resources and services.